Time;durP1;ratioP1;P1;durP2;ratioP2;P2;SDS_P1;SDS_P2;PMS_P1;PMS_P2;Temp;Humidity;BMP_temperature;BMP_pressure;BME280_temperature;BME280_humidity;BME280_pressure;Samples;Min_cycle;Max_cycle;Signal;HPM_P1;HPM_P2
2022/06/25 00:01:36;;;;;;;;;;;;;;;-147.11;100.00;61570.13;5003510;28;19917;-54
2022/06/25 00:04:01;;;;;;;;;;;;;;;-147.11;100.00;61570.13;5006082;28;19978;-52
2022/06/25 00:06:27;;;;;;;;;;;;;;;-147.11;100.00;61570.13;5007795;28;19925;-49
2022/06/25 00:08:52;;;;;;;;;;;;;;;-147.11;100.00;61570.13;5005795;28;19929;-52
2022/06/25 00:14:07;;;;;;;;;;;;;;;-147.11;100.00;61570.13;5014189;28;20479;-50
2022/06/25 00:16:32;;;;;;;;;;;;;;;-147.11;100.00;61570.13;5008833;28;19972;-51
2022/06/25 00:18:57;;;;;;;;;;;;;;;-147.11;100.00;61570.13;5012474;28;19921;-48
2022/06/25 00:21:23;;;;;;;;;;;;;;;-147.11;100.00;61570.13;5014827;28;19921;-50
2022/06/25 00:23:48;;;;;;;;;;;;;;;-147.11;100.00;61570.13;5023494;28;20394;-49
2022/06/25 00:26:13;;;;;;;;;;;;;;;-147.11;100.00;61570.13;5017903;28;19917;-48
2022/06/25 00:28:39;;;;;;;;;;;;;;;-147.11;100.00;61570.13;5020563;28;20024;-51
2022/06/25 00:31:04;;;;;;;;;;;;;;;-147.11;100.00;61570.13;5009907;28;19941;-49
2022/06/25 00:33:29;;;;;;;;;;;;;;;-147.11;100.00;61570.13;5013330;28;20284;-49
2022/06/25 00:35:54;;;;;;;;;;;;;;;-147.11;100.00;61570.13;5018486;28;19922;-51
2022/06/25 00:38:20;;;;;;;;;;;;;;;-147.11;100.00;61570.13;5016860;28;19926;-49
2022/06/25 00:40:45;;;;;;;;;;;;;;;-147.11;100.00;61570.13;5006163;28;19930;-51
2022/06/25 00:43:11;;;;;;;;;;;;;;;-147.11;100.00;61570.13;5014036;28;19961;-49
2022/06/25 00:45:36;;;;;;;;;;;;;;;-147.11;100.00;61570.13;5017030;28;20265;-49
2022/06/25 00:48:01;;;;;;;;;;;;;;;-147.11;100.00;61570.13;5013724;28;19921;-49
2022/06/25 00:50:27;;;;;;;;;;;;;;;-147.11;100.00;61570.13;5018270;28;20071;-49
2022/06/25 00:52:56;;;;;;;;;;;;;;;-147.11;100.00;61570.13;5014588;28;19925;-53
2022/06/25 00:55:23;;;;;;;;;;;;;;;-147.11;100.00;61570.13;5010661;28;19926;-52
2022/06/25 00:57:50;;;;;;;;;;;;;;;-147.11;100.00;61570.13;5013272;28;19921;-49
2022/06/25 01:00:17;;;;;;;;;;;;;;;-147.11;100.00;61570.13;5017725;28;19925;-49
2022/06/25 01:02:43;;;;;;;;;;;;;;;-147.11;100.00;61570.13;5017377;28;19925;-51
2022/06/25 01:05:10;;;;;;;;;;;;;;;-147.11;100.00;61570.13;5009861;28;20281;-53
2022/06/25 01:07:36;;;;;;;;;;;;;;;-147.11;100.00;61570.13;5016601;28;20004;-51
2022/06/25 01:10:02;;;;;;;;;;;;;;;-147.11;100.00;61570.13;5019164;28;19925;-51
2022/06/25 01:12:28;;;;;;;;;;;;;;;-147.11;100.00;61570.13;5011130;28;20148;-52
2022/06/25 01:15:03;;;;;;;;;;;;;;;-147.11;100.00;61570.13;5015086;28;20008;-51
2022/06/25 01:17:29;;;;;;;;;;;;;;;-147.11;100.00;61570.13;5009223;28;19960;-51
2022/06/25 01:19:54;;;;;;;;;;;;;;;-147.11;100.00;61570.13;5013298;28;19917;-51
2022/06/25 01:22:20;;;;;;;;;;;;;;;-147.11;100.00;61570.13;5014863;28;19960;-50
2022/06/25 01:24:46;;;;;;;;;;;;;;;-147.11;100.00;61570.13;5006465;28;19918;-49
2022/06/25 01:27:12;;;;;;;;;;;;;;;-147.11;100.00;61570.13;5010290;28;20307;-49
2022/06/25 01:29:37;;;;;;;;;;;;;;;-147.11;100.00;61570.13;5011727;28;20353;-50
2022/06/25 01:32:02;;;;;;;;;;;;;;;-147.11;100.00;61570.13;5012552;28;19922;-49
2022/06/25 01:34:28;;;;;;;;;;;;;;;-147.11;100.00;61570.13;5007234;28;19933;-49
2022/06/25 01:36:53;;;;;;;;;;;;;;;-147.11;100.00;61570.13;5008616;28;19925;-49
2022/06/25 01:39:18;;;;;;;;;;;;;;;-147.11;100.00;61570.13;5012452;28;19922;-48
2022/06/25 01:41:44;;;;;;;;;;;;;;;-147.11;100.00;61570.13;5014574;28;20344;-51
2022/06/25 01:44:09;;;;;;;;;;;;;;;-147.11;100.00;61570.13;5011631;28;19928;-50
2022/06/25 01:46:34;;;;;;;;;;;;;;;-147.11;100.00;61570.13;5009686;28;19921;-49
2022/06/25 01:48:59;;;;;;;;;;;;;;;-147.11;100.00;61570.13;5027785;28;20424;-49
2022/06/25 01:51:25;;;;;;;;;;;;;;;-147.11;100.00;61570.13;5014239;28;19930;-48
2022/06/25 01:53:50;;;;;;;;;;;;;;;-147.11;100.00;61570.13;5009935;28;19922;-49
2022/06/25 01:56:16;;;;;;;;;;;;;;;-147.11;100.00;61570.13;5008367;28;20385;-52
2022/06/25 01:58:41;;;;;;;;;;;;;;;-147.11;100.00;61570.13;5006924;28;19922;-48
2022/06/25 02:01:06;;;;;;;;;;;;;;;-147.11;100.00;61570.13;5007296;28;19930;-48
2022/06/25 02:03:32;;;;;;;;;;;;;;;-147.11;100.00;61570.13;5005545;28;20369;-49
2022/06/25 02:05:57;;;;;;;;;;;;;;;-147.11;100.00;61570.13;4992914;28;19960;-53
2022/06/25 02:08:23;;;;;;;;;;;;;;;-147.11;100.00;61570.13;5006282;28;19921;-48
2022/06/25 02:10:49;;;;;;;;;;;;;;;-147.11;100.00;61570.13;5013522;28;19930;-48
2022/06/25 02:13:15;;;;;;;;;;;;;;;-147.11;100.00;61570.13;5003273;28;19921;-53
2022/06/25 02:15:40;;;;;;;;;;;;;;;-147.11;100.00;61570.13;5000311;28;19926;-52
2022/06/25 02:18:05;;;;;;;;;;;;;;;-147.11;100.00;61570.13;5003698;28;20032;-49
2022/06/25 02:20:31;;;;;;;;;;;;;;;-147.11;100.00;61570.13;4996085;28;19969;-48
2022/06/25 02:22:57;;;;;;;;;;;;;;;-147.11;100.00;61570.13;4999617;28;19921;-51
2022/06/25 02:25:23;;;;;;;;;;;;;;;-147.11;100.00;61570.13;5011585;28;19922;-51
2022/06/25 02:27:48;;;;;;;;;;;;;;;-147.11;100.00;61570.13;5008598;28;20410;-48
2022/06/25 02:30:13;;;;;;;;;;;;;;;-147.11;100.00;61570.13;5008980;28;19972;-48
2022/06/25 02:32:39;;;;;;;;;;;;;;;-147.11;100.00;61570.13;5008750;28;19924;-51
2022/06/25 02:35:04;;;;;;;;;;;;;;;-147.11;100.00;61570.13;5004627;28;19925;-48
2022/06/25 02:37:29;;;;;;;;;;;;;;;-147.11;100.00;61570.13;5012203;28;19932;-49
2022/06/25 02:39:55;;;;;;;;;;;;;;;-147.11;100.00;61570.13;5014544;28;19925;-54
2022/06/25 02:42:20;;;;;;;;;;;;;;;-147.11;100.00;61570.13;5005378;28;19921;-48
2022/06/25 02:44:45;;;;;;;;;;;;;;;-147.11;100.00;61570.13;5008776;28;19924;-49
2022/06/25 02:47:11;;;;;;;;;;;;;;;-147.11;100.00;61570.13;5002553;28;20028;-53
2022/06/25 02:49:36;;;;;;;;;;;;;;;-147.11;100.00;61570.13;5002384;28;19929;-51
2022/06/25 02:52:01;;;;;;;;;;;;;;;-147.11;100.00;61570.13;5011041;28;20000;-49
2022/06/25 02:54:27;;;;;;;;;;;;;;;-147.11;100.00;61570.13;5007965;28;19930;-48
2022/06/25 02:59:40;;;;;;;;;;;;;;;-147.11;100.00;61570.13;5008905;28;19933;-52
2022/06/25 03:02:05;;;;;;;;;;;;;;;-147.11;100.00;61570.13;5006253;28;19917;-49
2022/06/25 03:04:30;;;;;;;;;;;;;;;-147.11;100.00;61570.13;5004482;28;19975;-49
2022/06/25 03:06:57;;;;;;;;;;;;;;;-147.11;100.00;61570.13;5013245;28;20312;-50
2022/06/25 03:09:23;;;;;;;;;;;;;;;-147.11;100.00;61570.13;5024584;28;19925;-51
2022/06/25 03:11:48;;;;;;;;;;;;;;;-147.11;100.00;61570.13;5010030;28;20310;-49
2022/06/25 03:14:14;;;;;;;;;;;;;;;-147.11;100.00;61570.13;5009195;28;19975;-54
2022/06/25 03:16:39;;;;;;;;;;;;;;;-147.11;100.00;61570.13;5001790;28;20389;-51
2022/06/25 03:19:04;;;;;;;;;;;;;;;-147.11;100.00;61570.13;5005314;28;19928;-52
2022/06/25 03:21:30;;;;;;;;;;;;;;;-147.11;100.00;61570.13;5007482;28;19921;-50
2022/06/25 03:23:55;;;;;;;;;;;;;;;-147.11;100.00;61570.13;5013554;28;20281;-51
2022/06/25 03:26:20;;;;;;;;;;;;;;;-147.11;100.00;61570.13;5004186;28;19922;-49
2022/06/25 03:28:46;;;;;;;;;;;;;;;-147.11;100.00;61570.13;5005785;28;20016;-53
2022/06/25 03:31:11;;;;;;;;;;;;;;;-147.11;100.00;61570.13;5008801;28;19921;-53
2022/06/25 03:33:38;;;;;;;;;;;;;;;-147.11;100.00;61570.13;5005833;28;20433;-50
2022/06/25 03:36:03;;;;;;;;;;;;;;;-147.11;100.00;61570.13;5007292;28;20004;-49
2022/06/25 03:38:28;;;;;;;;;;;;;;;-147.11;100.00;61570.13;5020311;28;20056;-50
2022/06/25 03:41:32;;;;;;;;;;;;;;;-147.11;100.00;61570.13;5008483;28;19935;-49
2022/06/25 03:43:39;;;;;;;;;;;;;;;-147.11;100.00;61570.13;5004979;28;19925;-51
2022/06/25 03:46:04;;;;;;;;;;;;;;;-147.11;100.00;61570.13;5003151;28;19924;-50
2022/06/25 03:48:30;;;;;;;;;;;;;;;-147.11;100.00;61570.13;5003027;28;19983;-49
2022/06/25 03:50:55;;;;;;;;;;;;;;;-147.11;100.00;61570.13;5007790;28;19928;-52
2022/06/25 03:53:20;;;;;;;;;;;;;;;-147.11;100.00;61570.13;5006779;28;19926;-50
2022/06/25 03:55:46;;;;;;;;;;;;;;;-147.11;100.00;61570.13;5005031;28;19929;-50
2022/06/25 03:58:11;;;;;;;;;;;;;;;-147.11;100.00;61570.13;5004548;28;20300;-53
2022/06/25 04:00:36;;;;;;;;;;;;;;;-147.11;100.00;61570.13;5001351;28;20024;-51
2022/06/25 04:03:02;;;;;;;;;;;;;;;-147.11;100.00;61570.13;4997229;28;19928;-50
2022/06/25 04:05:27;;;;;;;;;;;;;;;-147.11;100.00;61570.13;5005434;28;19917;-50
2022/06/25 04:07:52;;;;;;;;;;;;;;;-147.11;100.00;61570.13;5014213;28;20288;-49
2022/06/25 04:10:17;;;;;;;;;;;;;;;-147.11;100.00;61570.13;5009392;28;19964;-52
2022/06/25 04:12:43;;;;;;;;;;;;;;;-147.11;100.00;61570.13;5009517;28;19925;-49
2022/06/25 04:15:08;;;;;;;;;;;;;;;-147.11;100.00;61570.13;5007109;28;20304;-49
2022/06/25 04:17:34;;;;;;;;;;;;;;;-147.11;100.00;61570.13;5006133;28;19957;-51
2022/06/25 04:19:59;;;;;;;;;;;;;;;-147.11;100.00;61570.13;5004310;28;20120;-52
2022/06/25 04:22:24;;;;;;;;;;;;;;;-147.11;100.00;61570.13;5008074;28;19924;-51
2022/06/25 04:24:49;;;;;;;;;;;;;;;-147.11;100.00;61570.13;5007049;28;20024;-49
2022/06/25 04:29:03;;;;;;;;;;;;;;;-147.11;100.00;61570.13;5006657;28;19997;-50
2022/06/25 04:30:00;;;;;;;;;;;;;;;-147.11;100.00;61570.13;5001208;28;19979;-49
2022/06/25 04:32:25;;;;;;;;;;;;;;;-147.11;100.00;61570.13;5009354;28;19918;-50
2022/06/25 04:34:51;;;;;;;;;;;;;;;-147.11;100.00;61570.13;5008249;28;19932;-50
2022/06/25 04:37:16;;;;;;;;;;;;;;;-147.11;100.00;61570.13;5001972;28;19922;-51
2022/06/25 04:39:41;;;;;;;;;;;;;;;-147.11;100.00;61570.13;5005609;28;20312;-49
2022/06/25 04:42:06;;;;;;;;;;;;;;;-147.11;100.00;61570.13;5004732;28;20301;-52
2022/06/25 04:44:32;;;;;;;;;;;;;;;-147.11;100.00;61570.13;5002233;28;19930;-49
2022/06/25 04:46:57;;;;;;;;;;;;;;;-147.11;100.00;61570.13;5004553;28;19921;-49
2022/06/25 04:49:22;;;;;;;;;;;;;;;-147.11;100.00;61570.13;5008301;28;19945;-48
2022/06/25 04:51:48;;;;;;;;;;;;;;;-147.11;100.00;61570.13;5007224;28;19975;-54
2022/06/25 04:54:15;;;;;;;;;;;;;;;-147.11;100.00;61570.13;5008846;28;20012;-53
2022/06/25 04:56:40;;;;;;;;;;;;;;;-147.11;100.00;61570.13;5001689;28;19933;-50
2022/06/25 04:59:06;;;;;;;;;;;;;;;-147.11;100.00;61570.13;5004230;28;19917;-49
2022/06/25 05:01:31;;;;;;;;;;;;;;;-147.11;100.00;61570.13;5007942;28;19928;-52
2022/06/25 05:03:57;;;;;;;;;;;;;;;-147.11;100.00;61570.13;5008780;28;20372;-50
2022/06/25 05:06:22;;;;;;;;;;;;;;;-147.11;100.00;61570.13;5010486;28;19930;-51
2022/06/25 05:08:47;;;;;;;;;;;;;;;-147.11;100.00;61570.13;5014868;28;19928;-53
2022/06/25 05:11:13;;;;;;;;;;;;;;;-147.11;100.00;61570.13;4999561;28;19972;-51
2022/06/25 05:13:38;;;;;;;;;;;;;;;-147.11;100.00;61570.13;5009759;28;19933;-50
2022/06/25 05:16:03;;;;;;;;;;;;;;;-147.11;100.00;61570.13;5011232;28;19928;-50
2022/06/25 05:18:29;;;;;;;;;;;;;;;-147.11;100.00;61570.13;5007826;28;19930;-52
2022/06/25 05:20:54;;;;;;;;;;;;;;;-147.11;100.00;61570.13;5008939;28;19929;-56
2022/06/25 05:23:20;;;;;;;;;;;;;;;-147.11;100.00;61570.13;5003161;28;20012;-51
2022/06/25 05:25:45;;;;;;;;;;;;;;;-147.11;100.00;61570.13;5002855;28;20339;-53
2022/06/25 05:28:11;;;;;;;;;;;;;;;-147.11;100.00;61570.13;5004193;28;19921;-58
2022/06/25 05:30:36;;;;;;;;;;;;;;;-147.11;100.00;61570.13;5005252;28;19976;-54
2022/06/25 05:33:02;;;;;;;;;;;;;;;-147.11;100.00;61570.13;5012043;28;19921;-56
2022/06/25 05:35:27;;;;;;;;;;;;;;;-147.11;100.00;61570.13;5007583;28;19921;-58
2022/06/25 05:37:53;;;;;;;;;;;;;;;-147.11;100.00;61570.13;5007917;28;20381;-54
2022/06/25 05:40:18;;;;;;;;;;;;;;;-147.11;100.00;61570.13;5008082;28;19936;-55
2022/06/25 05:42:43;;;;;;;;;;;;;;;-147.11;100.00;61570.13;5007151;28;19925;-57
2022/06/25 05:45:09;;;;;;;;;;;;;;;-147.11;100.00;61570.13;5003777;28;19955;-55
2022/06/25 05:47:34;;;;;;;;;;;;;;;-147.11;100.00;61570.13;5004113;28;19924;-59
2022/06/25 05:49:59;;;;;;;;;;;;;;;-147.11;100.00;61570.13;5013453;28;20016;-58
2022/06/25 05:52:25;;;;;;;;;;;;;;;-147.11;100.00;61570.13;5010104;28;19921;-59
2022/06/25 05:54:50;;;;;;;;;;;;;;;-147.11;100.00;61570.13;5008354;28;19922;-58
2022/06/25 05:57:16;;;;;;;;;;;;;;;-147.11;100.00;61570.13;5012095;28;19960;-55
2022/06/25 05:59:41;;;;;;;;;;;;;;;-147.11;100.00;61570.13;5010427;28;20442;-57
2022/06/25 06:02:07;;;;;;;;;;;;;;;-147.11;100.00;61570.13;5008117;28;19925;-59
2022/06/25 06:04:32;;;;;;;;;;;;;;;-147.11;100.00;61570.13;5007229;28;19917;-57
2022/06/25 06:06:59;;;;;;;;;;;;;;;-147.11;100.00;61570.13;5011296;28;20403;-56
2022/06/25 06:09:27;;;;;;;;;;;;;;;-147.11;100.00;61570.13;5011133;28;19925;-58
2022/06/25 06:11:52;;;;;;;;;;;;;;;-147.11;100.00;61570.13;5012655;28;19980;-59
2022/06/25 06:14:17;;;;;;;;;;;;;;;-147.11;100.00;61570.13;5010059;28;20336;-57
2022/06/25 06:16:43;;;;;;;;;;;;;;;-147.11;100.00;61570.13;5007972;28;20004;-54
2022/06/25 06:19:08;;;;;;;;;;;;;;;-147.11;100.00;61570.13;5005413;28;19928;-51
2022/06/25 06:21:33;;;;;;;;;;;;;;;-147.11;100.00;61570.13;5010307;28;20430;-54
2022/06/25 06:23:59;;;;;;;;;;;;;;;-147.11;100.00;61570.13;5009418;28;20060;-58
2022/06/25 06:26:24;;;;;;;;;;;;;;;-147.11;100.00;61570.13;5008429;28;20000;-56
2022/06/25 06:28:49;;;;;;;;;;;;;;;-147.11;100.00;61570.13;5015063;28;19921;-57
2022/06/25 06:31:15;;;;;;;;;;;;;;;-147.11;100.00;61570.13;5004274;28;20300;-56
2022/06/25 06:33:40;;;;;;;;;;;;;;;-147.11;100.00;61570.13;5006290;28;20301;-59
2022/06/25 06:36:05;;;;;;;;;;;;;;;-147.11;100.00;61570.13;4999698;28;19921;-56
2022/06/25 06:38:30;;;;;;;;;;;;;;;-147.11;100.00;61570.13;5010704;28;19921;-56
2022/06/25 06:40:56;;;;;;;;;;;;;;;-147.11;100.00;61570.13;5007074;28;19918;-57
2022/06/25 06:43:21;;;;;;;;;;;;;;;-147.11;100.00;61570.13;4992750;28;20601;-56
2022/06/25 06:45:46;;;;;;;;;;;;;;;-147.11;100.00;61570.13;5006749;28;19935;-59
2022/06/25 06:48:12;;;;;;;;;;;;;;;-147.11;100.00;61570.13;5001834;28;19929;-55
2022/06/25 06:50:37;;;;;;;;;;;;;;;-147.11;100.00;61570.13;5003266;28;19925;-57
2022/06/25 06:53:02;;;;;;;;;;;;;;;-147.11;100.00;61570.13;4993688;28;19922;-58
2022/06/25 06:55:28;;;;;;;;;;;;;;;-147.11;100.00;61570.13;4991882;28;20332;-54
2022/06/25 06:57:53;;;;;;;;;;;;;;;-147.11;100.00;61570.13;5001418;28;19944;-59
2022/06/25 07:00:18;;;;;;;;;;;;;;;-147.11;100.00;61570.13;5006557;28;19935;-62
2022/06/25 07:02:43;;;;;;;;;;;;;;;-147.11;100.00;61570.13;5002137;28;19964;-61
2022/06/25 07:05:09;;;;;;;;;;;;;;;-147.11;100.00;61570.13;4998938;28;19925;-60
2022/06/25 07:07:34;;;;;;;;;;;;;;;-147.11;100.00;61570.13;5003774;28;20012;-59
2022/06/25 07:09:59;;;;;;;;;;;;;;;-147.11;100.00;61570.13;4999412;28;19929;-59
2022/06/25 07:12:25;;;;;;;;;;;;;;;-147.11;100.00;61570.13;5004124;28;19926;-60
2022/06/25 07:14:50;;;;;;;;;;;;;;;-147.11;100.00;61570.13;5005253;28;20285;-57
2022/06/25 07:17:15;;;;;;;;;;;;;;;-147.11;100.00;61570.13;5001763;28;19930;-59
2022/06/25 07:19:41;;;;;;;;;;;;;;;-147.11;100.00;61570.13;4997900;28;19937;-60
2022/06/25 07:22:06;;;;;;;;;;;;;;;-147.11;100.00;61570.13;5004874;28;20024;-59
2022/06/25 07:24:31;;;;;;;;;;;;;;;-147.11;100.00;61570.13;4999658;28;19921;-57
2022/06/25 07:26:56;;;;;;;;;;;;;;;-147.11;100.00;61570.13;5000718;28;19965;-58
2022/06/25 07:29:22;;;;;;;;;;;;;;;-147.11;100.00;61570.13;4998216;28;20369;-60
2022/06/25 07:31:48;;;;;;;;;;;;;;;-147.11;100.00;61570.13;4999571;28;19937;-57
2022/06/25 07:34:13;;;;;;;;;;;;;;;-147.11;100.00;61570.13;4996060;28;21164;-60
2022/06/25 07:36:39;;;;;;;;;;;;;;;-147.11;100.00;61570.13;5000852;28;19925;-58
2022/06/25 07:39:04;;;;;;;;;;;;;;;-147.11;100.00;61570.13;4997431;28;19943;-56
2022/06/25 07:41:29;;;;;;;;;;;;;;;-147.11;100.00;61570.13;5000572;28;20000;-60
2022/06/25 07:43:55;;;;;;;;;;;;;;;-147.11;100.00;61570.13;4987183;28;19937;-57
2022/06/25 07:46:20;;;;;;;;;;;;;;;-147.11;100.00;61570.13;4994668;28;19957;-60
2022/06/25 07:48:46;;;;;;;;;;;;;;;-147.11;100.00;61570.13;5001473;28;19921;-57
2022/06/25 07:53:55;;;;;;;;;;;;;;;-147.11;100.00;61570.13;5002072;28;19928;-57
2022/06/25 07:56:20;;;;;;;;;;;;;;;-147.11;100.00;61570.13;4993202;28;19953;-55
2022/06/25 07:58:46;;;;;;;;;;;;;;;-147.11;100.00;61570.13;5003801;28;20372;-57
2022/06/25 08:01:11;;;;;;;;;;;;;;;-147.11;100.00;61570.13;4996959;28;19917;-58
2022/06/25 08:03:36;;;;;;;;;;;;;;;-147.11;100.00;61570.13;5006455;28;20589;-55
2022/06/25 08:06:02;;;;;;;;;;;;;;;-147.11;100.00;61570.13;4994697;28;19976;-55
2022/06/25 08:08:27;;;;;;;;;;;;;;;-147.11;100.00;61570.13;4994604;28;19926;-60
2022/06/25 08:10:53;;;;;;;;;;;;;;;-147.11;100.00;61570.13;4998111;28;20064;-54
2022/06/25 08:13:18;;;;;;;;;;;;;;;-147.11;100.00;61570.13;5009014;28;19921;-51
2022/06/25 08:15:44;;;;;;;;;;;;;;;-147.11;100.00;61570.13;5004278;28;20261;-55
2022/06/25 08:18:09;;;;;;;;;;;;;;;-147.11;100.00;61570.13;4996533;28;19948;-56
2022/06/25 08:20:34;;;;;;;;;;;;;;;-147.11;100.00;61570.13;4995913;28;19967;-59
2022/06/25 08:23:00;;;;;;;;;;;;;;;-147.11;100.00;61570.13;4992267;28;20020;-58
2022/06/25 08:25:25;;;;;;;;;;;;;;;-147.11;100.00;61570.13;5005003;28;19958;-57
2022/06/25 08:27:53;;;;;;;;;;;;;;;-147.11;100.00;61570.13;4992169;28;19945;-60
2022/06/25 08:30:19;;;;;;;;;;;;;;;-147.11;100.00;61570.13;4996675;28;19929;-60
2022/06/25 08:32:45;;;;;;;;;;;;;;;-147.11;100.00;61570.13;5006628;28;19924;-56
2022/06/25 08:35:10;;;;;;;;;;;;;;;-147.11;100.00;61570.13;5007797;28;19917;-58
2022/06/25 08:37:36;;;;;;;;;;;;;;;-147.11;100.00;61570.13;5013130;28;19949;-59
2022/06/25 08:40:02;;;;;;;;;;;;;;;-147.11;100.00;61570.13;5002228;28;19918;-56
2022/06/25 08:42:27;;;;;;;;;;;;;;;-147.11;100.00;61570.13;5001457;28;20372;-57
2022/06/25 08:44:52;;;;;;;;;;;;;;;-147.11;100.00;61570.13;5002834;28;19937;-55
2022/06/25 08:47:18;;;;;;;;;;;;;;;-147.11;100.00;61570.13;5002268;28;19929;-54
2022/06/25 08:49:44;;;;;;;;;;;;;;;-147.11;100.00;61570.13;5000463;28;20056;-56
2022/06/25 08:52:10;;;;;;;;;;;;;;;-147.11;100.00;61570.13;5000478;28;19975;-54
2022/06/25 08:54:36;;;;;;;;;;;;;;;-147.11;100.00;61570.13;4998768;28;19925;-54
2022/06/25 08:57:02;;;;;;;;;;;;;;;-147.11;100.00;61570.13;5006309;28;19922;-55
2022/06/25 08:59:28;;;;;;;;;;;;;;;-147.11;100.00;61570.13;4995792;28;19925;-55
2022/06/25 09:01:53;;;;;;;;;;;;;;;-147.11;100.00;61570.13;4999340;28;19932;-54
2022/06/25 09:04:19;;;;;;;;;;;;;;;-147.11;100.00;61570.13;5009500;28;19930;-56
2022/06/25 09:06:44;;;;;;;;;;;;;;;-147.11;100.00;61570.13;4999581;28;19930;-58
2022/06/25 09:09:15;;;;;;;;;;;;;;;-147.11;100.00;61570.13;5004235;28;19983;-60
2022/06/25 09:11:49;;;;;;;;;;;;;;;-147.11;100.00;61570.13;4992776;28;19931;-54
2022/06/25 09:14:35;;;;;;;;;;;;;;;-147.11;100.00;61570.13;4994504;28;19976;-56
2022/06/25 09:17:05;;;;;;;;;;;;;;;-147.11;100.00;61570.13;5002546;28;19926;-60
2022/06/25 09:19:30;;;;;;;;;;;;;;;-147.11;100.00;61570.13;5008890;28;19925;-56
2022/06/25 09:21:57;;;;;;;;;;;;;;;-147.11;100.00;61570.13;5005519;28;19963;-57
2022/06/25 09:24:22;;;;;;;;;;;;;;;-147.11;100.00;61570.13;4996918;28;19924;-55
2022/06/25 09:26:51;;;;;;;;;;;;;;;-147.11;100.00;61570.13;4999672;28;19918;-55
2022/06/25 09:29:16;;;;;;;;;;;;;;;-147.11;100.00;61570.13;4993410;28;19933;-53
2022/06/25 09:31:41;;;;;;;;;;;;;;;-147.11;100.00;61570.13;5002133;28;19928;-53
2022/06/25 09:34:07;;;;;;;;;;;;;;;-147.11;100.00;61570.13;4997603;28;20057;-55
2022/06/25 09:36:33;;;;;;;;;;;;;;;-147.11;100.00;61570.13;4995743;28;19925;-53
2022/06/25 09:38:58;;;;;;;;;;;;;;;-147.11;100.00;61570.13;4996617;28;19932;-54
2022/06/25 09:41:24;;;;;;;;;;;;;;;-147.11;100.00;61570.13;4996596;28;19928;-52
2022/06/25 09:43:51;;;;;;;;;;;;;;;-147.11;100.00;61570.13;4997507;28;19944;-57
2022/06/25 09:46:16;;;;;;;;;;;;;;;-147.11;100.00;61570.13;4996557;28;20489;-58
2022/06/25 09:48:42;;;;;;;;;;;;;;;-147.11;100.00;61570.13;5003176;28;19927;-57
2022/06/25 09:51:13;;;;;;;;;;;;;;;-147.11;100.00;61570.13;5004628;28;21063;-57
2022/06/25 09:53:48;;;;;;;;;;;;;;;-147.11;100.00;61570.13;5011653;28;19925;-57
2022/06/25 09:56:15;;;;;;;;;;;;;;;-147.11;100.00;61570.13;5010705;28;20329;-56
2022/06/25 09:58:41;;;;;;;;;;;;;;;-147.11;100.00;61570.13;5005579;28;19940;-56
2022/06/25 10:01:07;;;;;;;;;;;;;;;-147.11;100.00;61570.13;5016860;28;19929;-57
2022/06/25 10:03:33;;;;;;;;;;;;;;;-147.11;100.00;61570.13;5012019;28;19922;-55
2022/06/25 10:05:59;;;;;;;;;;;;;;;-147.11;100.00;61570.13;5011406;28;20471;-57
2022/06/25 10:08:26;;;;;;;;;;;;;;;-147.11;100.00;61570.13;5008485;28;19944;-57
2022/06/25 10:10:52;;;;;;;;;;;;;;;-147.11;100.00;61570.13;5013850;28;19975;-56
2022/06/25 10:13:18;;;;;;;;;;;;;;;-147.11;100.00;61570.13;5017525;28;20354;-58
2022/06/25 10:15:44;;;;;;;;;;;;;;;-147.11;100.00;61570.13;5012609;28;20412;-55
2022/06/25 10:18:10;;;;;;;;;;;;;;;-147.11;100.00;61570.13;5009183;28;19971;-55
2022/06/25 10:20:36;;;;;;;;;;;;;;;-147.11;100.00;61570.13;5015638;28;20308;-55
2022/06/25 10:23:03;;;;;;;;;;;;;;;-147.11;100.00;61570.13;5019661;28;20308;-53
2022/06/25 10:25:28;;;;;;;;;;;;;;;-147.11;100.00;61570.13;5010229;28;19926;-55
2022/06/25 10:28:13;;;;;;;;;;;;;;;-147.11;100.00;61570.13;5008158;28;19921;-59
2022/06/25 10:30:39;;;;;;;;;;;;;;;-147.11;100.00;61570.13;5006816;28;19941;-59
2022/06/25 10:33:05;;;;;;;;;;;;;;;-147.11;100.00;61570.13;5010335;28;20743;-59
2022/06/25 10:35:39;;;;;;;;;;;;;;;-147.11;100.00;61570.13;5007911;28;20422;-60
2022/06/25 10:38:09;;;;;;;;;;;;;;;-147.11;100.00;61570.13;5004571;28;19972;-58
2022/06/25 10:40:53;;;;;;;;;;;;;;;-147.11;100.00;61570.13;5010567;28;20325;-58
2022/06/25 10:43:37;;;;;;;;;;;;;;;-147.11;100.00;61570.13;5017773;28;19913;-60
2022/06/25 10:46:21;;;;;;;;;;;;;;;-147.11;100.00;61570.13;5004021;28;19940;-60
2022/06/25 10:48:51;;;;;;;;;;;;;;;-147.11;100.00;61570.13;5006558;28;19987;-59
2022/06/25 10:51:27;;;;;;;;;;;;;;;-147.11;100.00;61570.13;5008655;28;19921;-56
2022/06/25 10:53:52;;;;;;;;;;;;;;;-147.11;100.00;61570.13;5007611;28;20346;-60
2022/06/25 10:56:17;;;;;;;;;;;;;;;-147.11;100.00;61570.13;5011752;28;20420;-58
2022/06/25 10:58:44;;;;;;;;;;;;;;;-147.11;100.00;61570.13;5009968;28;19978;-58
2022/06/25 11:01:19;;;;;;;;;;;;;;;-147.11;100.00;61570.13;5009347;28;19924;-60
2022/06/25 11:03:45;;;;;;;;;;;;;;;-147.11;100.00;61570.13;5011163;28;19921;-60
2022/06/25 11:06:24;;;;;;;;;;;;;;;-147.11;100.00;61570.13;5012325;28;19933;-60
2022/06/25 11:08:50;;;;;;;;;;;;;;;-147.11;100.00;61570.13;5002856;28;20319;-60
2022/06/25 11:11:23;;;;;;;;;;;;;;;-147.11;100.00;61570.13;5011628;28;20356;-57
2022/06/25 11:13:48;;;;;;;;;;;;;;;-147.11;100.00;61570.13;5005904;28;20560;-60
2022/06/25 11:16:14;;;;;;;;;;;;;;;-147.11;100.00;61570.13;5010343;28;20462;-60
2022/06/25 11:18:50;;;;;;;;;;;;;;;-147.11;100.00;61570.13;5010607;28;20012;-60
2022/06/25 11:21:29;;;;;;;;;;;;;;;-147.11;100.00;61570.13;5007128;28;19925;-59
2022/06/25 11:24:14;;;;;;;;;;;;;;;-147.11;100.00;61570.13;5009861;28;19925;-57
2022/06/25 11:29:29;;;;;;;;;;;;;;;-147.11;100.00;61570.13;5009412;28;20388;-58
2022/06/25 11:31:55;;;;;;;;;;;;;;;-147.11;100.00;61570.13;5010274;28;19921;-59
2022/06/25 11:34:21;;;;;;;;;;;;;;;-147.11;100.00;61570.13;5015132;28;19925;-61
2022/06/25 11:37:06;;;;;;;;;;;;;;;-147.11;100.00;61570.13;5006453;28;19921;-60
2022/06/25 11:39:32;;;;;;;;;;;;;;;-147.11;100.00;61570.13;5000228;28;19925;-60
2022/06/25 11:41:57;;;;;;;;;;;;;;;-147.11;100.00;61570.13;5005788;28;19929;-60
2022/06/25 11:44:23;;;;;;;;;;;;;;;-147.11;100.00;61570.13;5010894;28;19918;-60
2022/06/25 11:46:49;;;;;;;;;;;;;;;-147.11;100.00;61570.13;5009254;28;19967;-59
2022/06/25 11:49:15;;;;;;;;;;;;;;;-147.11;100.00;61570.13;5004722;28;19922;-55
2022/06/25 11:51:48;;;;;;;;;;;;;;;-147.11;100.00;61570.13;5008147;28;19929;-57
2022/06/25 11:54:13;;;;;;;;;;;;;;;-147.11;100.00;61570.13;5000275;28;20297;-56
2022/06/25 11:56:45;;;;;;;;;;;;;;;-147.11;100.00;61570.13;5006806;28;20376;-57
2022/06/25 11:59:11;;;;;;;;;;;;;;;-147.11;100.00;61570.13;5014436;28;19933;-55
2022/06/25 12:01:36;;;;;;;;;;;;;;;-147.11;100.00;61570.13;5009381;28;19921;-57
2022/06/25 12:04:02;;;;;;;;;;;;;;;-147.11;100.00;61570.13;5012582;28;19925;-56
2022/06/25 12:06:30;;;;;;;;;;;;;;;-147.11;100.00;61570.13;5011954;28;19922;-56
2022/06/25 12:08:56;;;;;;;;;;;;;;;-147.11;100.00;61570.13;5009432;28;20432;-57
2022/06/25 12:11:21;;;;;;;;;;;;;;;-147.11;100.00;61570.13;5006100;28;19925;-56
2022/06/25 12:13:47;;;;;;;;;;;;;;;-147.11;100.00;61570.13;5010879;28;20262;-58
2022/06/25 12:16:12;;;;;;;;;;;;;;;-147.11;100.00;61570.13;5008920;28;19932;-57
2022/06/25 12:18:41;;;;;;;;;;;;;;;-147.11;100.00;61570.13;5013694;28;20281;-60
2022/06/25 12:21:07;;;;;;;;;;;;;;;-147.11;100.00;61570.13;5007550;28;19968;-61
2022/06/25 12:24:08;;;;;;;;;;;;;;;-147.11;100.00;61570.13;5007378;28;19953;-57
2022/06/25 12:26:34;;;;;;;;;;;;;;;-147.11;100.00;61570.13;4945355;29;20291;-61